Time;durP1;ratioP1;P1;durP2;ratioP2;P2;SDS_P1;SDS_P2;PMS_P1;PMS_P2;Temp;Humidity;BMP_temperature;BMP_pressure;BME280_temperature;BME280_humidity;BME280_pressure;Samples;Min_cycle;Max_cycle;Signal;HPM_P1;HPM_P2
2022/07/07 00:02:00;;;;;;;21.15;18.80;;;16.70;99.90;;;;;;5003935;28;20783;-72
2022/07/07 00:04:27;;;;;;;19.02;17.08;;;16.80;99.90;;;;;;5011494;28;20045;-72
2022/07/07 00:06:53;;;;;;;20.38;16.25;;;16.70;99.90;;;;;;4977413;28;20061;-72
2022/07/07 00:09:22;;;;;;;17.37;15.50;;;16.80;99.90;;;;;;5011909;28;20111;-71
2022/07/07 00:11:49;;;;;;;18.75;16.00;;;16.70;99.90;;;;;;4992156;28;20070;-72
2022/07/07 00:14:15;;;;;;;19.05;16.58;;;16.70;99.90;;;;;;5022245;28;20108;-71
2022/07/07 00:16:41;;;;;;;16.83;15.02;;;16.70;99.90;;;;;;5010834;28;20451;-72
2022/07/07 00:19:07;;;;;;;23.25;18.20;;;16.70;99.90;;;;;;5020302;28;20046;-72
2022/07/07 00:21:32;;;;;;;15.95;14.25;;;16.70;99.90;;;;;;5013035;28;20048;-71
2022/07/07 00:23:58;;;;;;;17.13;15.23;;;16.60;99.90;;;;;;5025380;28;20131;-72
2022/07/07 00:26:24;;;;;;;19.33;16.50;;;16.70;99.90;;;;;;4986696;28;20038;-72
2022/07/07 00:28:50;;;;;;;17.00;15.30;;;16.60;99.90;;;;;;4988460;28;20046;-72
2022/07/07 00:31:16;;;;;;;17.90;15.73;;;16.60;99.90;;;;;;5005045;28;20068;-72
2022/07/07 00:33:42;;;;;;;15.23;13.30;;;16.60;99.90;;;;;;4984201;28;21050;-72
2022/07/07 00:36:08;;;;;;;15.48;13.95;;;16.60;99.90;;;;;;5024708;28;20042;-72
2022/07/07 00:38:34;;;;;;;17.90;15.05;;;16.60;99.90;;;;;;5029302;28;20111;-72
2022/07/07 00:41:00;;;;;;;17.38;15.48;;;16.60;99.90;;;;;;4989129;28;20583;-72
2022/07/07 00:43:26;;;;;;;16.35;13.48;;;16.60;99.90;;;;;;5018341;28;20064;-72
2022/07/07 00:45:55;;;;;;;16.35;13.07;;;16.60;99.90;;;;;;5006520;28;20954;-72
2022/07/07 00:48:21;;;;;;;16.23;14.30;;;16.60;99.90;;;;;;4985773;28;20034;-71
2022/07/07 00:50:48;;;;;;;16.33;13.80;;;16.50;99.90;;;;;;5006564;28;20049;-71
2022/07/07 00:53:15;;;;;;;19.67;16.27;;;16.50;99.90;;;;;;5029377;28;20132;-72
2022/07/07 00:55:41;;;;;;;15.77;13.18;;;16.50;99.90;;;;;;4992168;28;20467;-72
2022/07/07 00:58:07;;;;;;;16.30;14.57;;;16.50;99.90;;;;;;5032540;28;20056;-72
2022/07/07 01:00:34;;;;;;;15.55;12.77;;;16.50;99.90;;;;;;5024858;28;20041;-71
2022/07/07 01:03:00;;;;;;;16.75;13.65;;;16.50;99.90;;;;;;5023112;28;20049;-71
2022/07/07 01:05:27;;;;;;;13.48;11.82;;;16.50;99.90;;;;;;5029256;28;20492;-72
2022/07/07 01:07:56;;;;;;;14.00;12.32;;;16.50;99.90;;;;;;5029427;28;20500;-71
2022/07/07 01:10:22;;;;;;;14.05;12.60;;;16.50;99.90;;;;;;4994722;28;20052;-72
2022/07/07 01:12:48;;;;;;;18.17;13.38;;;16.40;99.90;;;;;;5004713;28;20060;-72
2022/07/07 01:15:14;;;;;;;13.52;12.02;;;16.50;99.90;;;;;;4977478;28;20041;-72
2022/07/07 01:17:40;;;;;;;15.25;12.18;;;16.40;99.90;;;;;;5021948;28;20041;-72
2022/07/07 01:20:08;;;;;;;16.63;12.85;;;16.50;99.90;;;;;;5013494;28;20123;-72
2022/07/07 01:22:39;;;;;;;12.20;10.93;;;16.40;99.90;;;;;;4991820;28;20034;-72
2022/07/07 01:25:06;;;;;;;15.68;11.57;;;16.50;99.90;;;;;;4990723;28;20065;-72
2022/07/07 01:27:33;;;;;;;14.73;12.05;;;16.50;99.90;;;;;;5006334;28;20042;-72
2022/07/07 01:29:58;;;;;;;13.35;10.13;;;16.40;99.90;;;;;;5004101;28;20494;-72
2022/07/07 01:32:26;;;;;;;12.68;9.30;;;16.40;99.90;;;;;;5029886;28;20493;-72
2022/07/07 01:34:55;;;;;;;13.48;9.38;;;16.50;99.90;;;;;;5024435;28;20096;-71
2022/07/07 01:37:21;;;;;;;10.45;7.80;;;16.40;99.90;;;;;;5022582;28;20041;-72
2022/07/07 01:39:48;;;;;;;11.85;9.07;;;16.40;99.90;;;;;;5014769;28;20590;-72
2022/07/07 01:42:14;;;;;;;10.73;7.65;;;16.40;99.90;;;;;;4988766;28;20053;-73
2022/07/07 01:44:42;;;;;;;10.63;6.47;;;16.40;99.90;;;;;;4994764;28;20072;-73
2022/07/07 01:47:09;;;;;;;9.23;6.10;;;16.40;99.90;;;;;;4990751;28;20045;-73
2022/07/07 01:49:36;;;;;;;9.57;6.68;;;16.40;99.90;;;;;;5019904;28;20041;-72
2022/07/07 01:52:03;;;;;;;13.23;8.43;;;16.40;99.90;;;;;;4990241;28;20049;-73
2022/07/07 01:54:30;;;;;;;10.50;7.25;;;16.30;99.90;;;;;;5018311;28;20488;-72
2022/07/07 01:56:56;;;;;;;12.20;6.80;;;16.30;99.90;;;;;;5026023;28;20046;-78
2022/07/07 01:59:22;;;;;;;14.02;8.07;;;16.30;99.90;;;;;;5021816;28;20040;-78
2022/07/07 02:01:49;;;;;;;11.38;8.07;;;16.30;99.90;;;;;;5010033;28;20163;-78
2022/07/07 02:04:14;;;;;;;16.10;9.73;;;16.30;99.90;;;;;;5008125;28;20056;-77
2022/07/07 02:06:40;;;;;;;10.25;6.90;;;16.30;99.90;;;;;;5023313;28;20053;-73
2022/07/07 02:09:07;;;;;;;9.15;7.05;;;16.30;99.90;;;;;;5000114;28;20573;-72
2022/07/07 02:11:32;;;;;;;11.05;7.90;;;16.20;99.90;;;;;;5007934;28;20045;-72
2022/07/07 02:13:58;;;;;;;10.70;6.82;;;16.30;99.90;;;;;;5009079;28;20515;-72
2022/07/07 02:16:25;;;;;;;9.90;7.30;;;16.20;99.90;;;;;;5020318;28;20115;-72
2022/07/07 02:18:54;;;;;;;9.73;6.63;;;16.20;99.90;;;;;;5018967;28;20066;-72
2022/07/07 02:21:20;;;;;;;6.72;5.53;;;16.20;99.90;;;;;;5004389;28;20488;-72
2022/07/07 02:23:47;;;;;;;9.98;7.20;;;16.20;99.90;;;;;;4998695;28;20049;-72
2022/07/07 02:26:13;;;;;;;10.10;7.05;;;16.20;99.90;;;;;;5009823;28;20053;-72
2022/07/07 02:28:40;;;;;;;7.53;5.65;;;16.20;99.90;;;;;;5007317;28;20057;-72
2022/07/07 02:31:06;;;;;;;11.15;6.10;;;16.20;99.90;;;;;;5001241;28;20046;-72
2022/07/07 02:33:32;;;;;;;11.10;6.30;;;16.20;99.90;;;;;;4996210;28;20060;-73
2022/07/07 02:35:58;;;;;;;8.65;5.97;;;16.20;99.90;;;;;;5025208;28;20540;-72
2022/07/07 02:38:25;;;;;;;10.13;6.10;;;16.20;99.90;;;;;;4992822;28;20041;-72
2022/07/07 02:40:51;;;;;;;10.30;6.32;;;16.20;99.90;;;;;;5019600;28;20053;-72
2022/07/07 02:43:18;;;;;;;7.72;5.72;;;16.20;99.90;;;;;;5023000;28;20091;-72
2022/07/07 02:45:48;;;;;;;13.25;7.82;;;16.20;99.90;;;;;;4993367;28;20134;-72
2022/07/07 02:48:16;;;;;;;9.60;6.63;;;16.20;99.90;;;;;;5040908;28;20181;-71
2022/07/07 02:50:42;;;;;;;11.70;7.28;;;16.20;99.90;;;;;;5020148;28;20064;-72
2022/07/07 02:53:10;;;;;;;9.57;5.90;;;16.20;99.90;;;;;;5022216;28;20075;-78
2022/07/07 02:55:36;;;;;;;10.57;7.13;;;16.20;99.90;;;;;;5006103;28;20602;-78
2022/07/07 02:58:03;;;;;;;13.27;8.75;;;16.20;99.90;;;;;;5004318;28;20428;-78
2022/07/07 03:00:29;;;;;;;13.10;6.55;;;16.20;99.90;;;;;;5022868;28;20056;-76
2022/07/07 03:02:55;;;;;;;10.10;6.47;;;16.20;99.90;;;;;;5017363;28;20033;-76
2022/07/07 03:05:22;;;;;;;9.05;6.25;;;16.20;99.90;;;;;;5021610;28;20139;-72
2022/07/07 03:07:49;;;;;;;16.85;7.90;;;16.20;99.90;;;;;;5021997;28;20057;-71
2022/07/07 03:10:15;;;;;;;10.85;5.93;;;16.20;99.90;;;;;;5022674;28;20052;-72
2022/07/07 03:12:41;;;;;;;10.40;5.63;;;16.20;99.90;;;;;;5003530;28;20119;-71
2022/07/07 03:15:08;;;;;;;10.30;5.57;;;16.20;99.90;;;;;;5020194;28;20099;-71
2022/07/07 03:17:35;;;;;;;9.82;5.43;;;16.20;99.90;;;;;;5006749;28;20049;-72
2022/07/07 03:20:01;;;;;;;12.52;6.28;;;16.20;99.90;;;;;;5009159;28;20127;-72
2022/07/07 03:22:27;;;;;;;8.88;4.50;;;16.20;99.90;;;;;;5020107;28;20048;-72
2022/07/07 03:24:53;;;;;;;9.73;4.43;;;16.20;99.90;;;;;;5005007;28;20049;-72
2022/07/07 03:27:19;;;;;;;13.02;5.38;;;16.20;99.90;;;;;;5009482;28;20083;-72
2022/07/07 03:29:45;;;;;;;13.75;7.35;;;16.10;99.90;;;;;;4983165;28;20077;-72
2022/07/07 03:32:11;;;;;;;10.13;4.75;;;16.10;99.90;;;;;;5015880;28;20248;-72
2022/07/07 03:34:37;;;;;;;11.02;4.82;;;16.10;99.90;;;;;;5015184;28;20508;-71
2022/07/07 03:37:03;;;;;;;15.50;5.03;;;16.10;99.90;;;;;;5011817;28;20061;-73
2022/07/07 03:39:29;;;;;;;13.38;3.85;;;16.10;99.90;;;;;;4990257;28;20444;-72
2022/07/07 03:41:55;;;;;;;15.48;5.65;;;16.10;99.90;;;;;;5003471;28;20049;-72
2022/07/07 03:44:21;;;;;;;11.35;4.20;;;16.10;99.90;;;;;;5022270;28;20558;-72
2022/07/07 03:46:47;;;;;;;11.80;4.38;;;16.10;99.90;;;;;;5013359;28;20188;-72
2022/07/07 03:49:12;;;;;;;12.35;4.38;;;16.10;99.90;;;;;;5011345;28;20054;-78
2022/07/07 03:51:38;;;;;;;12.10;4.72;;;16.10;99.90;;;;;;4993540;28;20053;-76
2022/07/07 03:54:04;;;;;;;10.88;4.25;;;16.00;99.90;;;;;;5006102;28;20125;-77
2022/07/07 03:56:30;;;;;;;12.73;4.55;;;16.00;99.90;;;;;;5006567;28;20033;-77
2022/07/07 03:58:58;;;;;;;12.50;3.80;;;16.00;99.90;;;;;;4998743;28;20050;-77
2022/07/07 04:01:24;;;;;;;8.68;3.92;;;16.00;99.90;;;;;;5013167;28;20171;-76
2022/07/07 04:03:50;;;;;;;10.82;4.22;;;16.00;99.90;;;;;;5003216;28;20045;-72
2022/07/07 04:06:16;;;;;;;10.52;3.90;;;16.00;99.90;;;;;;5022662;28;20053;-72
2022/07/07 04:08:41;;;;;;;11.05;4.32;;;16.00;99.90;;;;;;5002044;28;20050;-72
2022/07/07 04:11:07;;;;;;;11.88;3.95;;;16.00;99.90;;;;;;4991905;28;20060;-72
2022/07/07 04:13:33;;;;;;;14.85;4.10;;;16.00;99.90;;;;;;5017535;28;20531;-73
2022/07/07 04:15:59;;;;;;;10.85;4.35;;;16.00;99.90;;;;;;4975704;28;20575;-73
2022/07/07 04:18:25;;;;;;;12.60;3.35;;;15.90;99.90;;;;;;5023636;28;20527;-72
2022/07/07 04:20:54;;;;;;;12.20;4.10;;;15.90;99.90;;;;;;4991002;28;20139;-72
2022/07/07 04:23:19;;;;;;;10.52;2.90;;;15.90;99.90;;;;;;5013794;28;20547;-73
2022/07/07 04:25:45;;;;;;;8.20;2.20;;;15.90;99.90;;;;;;5001261;28;20077;-73
2022/07/07 04:28:11;;;;;;;8.30;2.17;;;15.80;99.90;;;;;;5007942;28;20080;-73
2022/07/07 04:30:37;;;;;;;8.75;1.70;;;15.80;99.90;;;;;;5005179;28;20056;-72
2022/07/07 04:33:03;;;;;;;9.77;1.88;;;15.70;99.90;;;;;;5017708;28;20050;-73
2022/07/07 04:35:29;;;;;;;9.40;1.98;;;15.60;99.90;;;;;;5014360;28;20038;-73
2022/07/07 04:37:54;;;;;;;8.43;1.73;;;15.50;99.90;;;;;;4973275;28;20451;-73
2022/07/07 04:40:20;;;;;;;7.20;1.60;;;15.50;99.90;;;;;;4998162;28;20485;-70
2022/07/07 04:42:46;;;;;;;7.68;1.60;;;15.50;99.90;;;;;;5010833;28;20058;-71
2022/07/07 04:45:12;;;;;;;6.88;1.50;;;15.40;99.90;;;;;;5002002;28;20045;-77
2022/07/07 04:47:42;;;;;;;10.98;2.30;;;15.50;99.90;;;;;;5008665;28;20076;-71
2022/07/07 04:50:08;;;;;;;;;;;15.50;99.90;;;;;;4998938;28;20402;-71
2022/07/07 04:52:37;;;;;;;8.70;2.00;;;15.50;99.90;;;;;;5016148;28;20012;-73
2022/07/07 04:55:04;;;;;;;9.13;1.73;;;15.40;99.90;;;;;;4993499;28;20064;-73
2022/07/07 04:57:30;;;;;;;10.93;2.20;;;15.50;99.90;;;;;;5008384;28;20052;-73
2022/07/07 04:59:57;;;;;;;7.88;1.60;;;15.50;99.90;;;;;;5020852;28;20052;-73
2022/07/07 05:02:23;;;;;;;11.15;2.25;;;15.50;99.90;;;;;;4990647;28;20459;-73
2022/07/07 05:04:49;;;;;;;10.38;2.25;;;15.50;99.90;;;;;;5016251;28;20057;-73
2022/07/07 05:07:16;;;;;;;8.45;2.08;;;15.50;99.90;;;;;;5005744;28;20075;-73
2022/07/07 05:09:42;;;;;;;8.00;2.40;;;15.50;99.90;;;;;;5006572;28;20072;-73
2022/07/07 05:12:08;;;;;;;10.00;1.70;;;15.60;99.90;;;;;;5023347;28;20487;-74
2022/07/07 05:14:34;;;;;;;8.13;1.83;;;15.60;99.90;;;;;;5021160;28;20061;-73
2022/07/07 05:17:00;;;;;;;10.32;2.15;;;15.60;99.90;;;;;;5003723;28;21259;-73
2022/07/07 05:19:27;;;;;;;10.25;2.08;;;15.70;99.90;;;;;;4997267;28;20123;-74
2022/07/07 05:21:55;;;;;;;8.38;2.10;;;15.70;99.90;;;;;;5015673;28;20678;-75
2022/07/07 05:24:21;;;;;;;9.75;1.92;;;15.70;99.90;;;;;;5006935;28;20116;-74
2022/07/07 05:26:48;;;;;;;10.73;1.60;;;15.60;99.90;;;;;;5001900;28;20536;-73
2022/07/07 05:29:14;;;;;;;8.00;1.98;;;15.50;99.90;;;;;;5017669;28;20052;-74
2022/07/07 05:31:40;;;;;;;10.23;1.65;;;15.50;99.90;;;;;;4999724;28;20045;-74
2022/07/07 05:34:06;;;;;;;8.48;1.60;;;15.50;99.90;;;;;;5015624;28;20039;-74
2022/07/07 05:36:35;;;;;;;9.90;2.40;;;15.50;99.90;;;;;;5017476;28;20094;-74
2022/07/07 05:39:04;;;;;;;8.15;1.70;;;15.50;99.90;;;;;;5002630;28;20053;-74
2022/07/07 05:41:30;;;;;;;11.80;2.35;;;15.50;99.90;;;;;;5015654;28;20083;-74
2022/07/07 05:43:55;;;;;;;10.65;2.13;;;15.50;99.90;;;;;;4982348;28;20075;-73
2022/07/07 05:46:21;;;;;;;10.15;2.55;;;15.50;99.90;;;;;;4985044;28;20037;-72
2022/07/07 05:48:47;;;;;;;10.98;2.55;;;15.50;99.90;;;;;;4979731;28;20523;-76
2022/07/07 05:51:13;;;;;;;9.55;2.03;;;15.60;99.90;;;;;;4999506;28;20071;-73
2022/07/07 05:53:38;;;;;;;11.90;2.70;;;15.60;99.90;;;;;;4995618;28;20041;-73
2022/07/07 05:56:04;;;;;;;10.93;2.67;;;15.70;99.90;;;;;;5010456;28;20049;-74
2022/07/07 05:58:31;;;;;;;13.00;2.42;;;15.70;99.90;;;;;;4999037;28;20087;-79
2022/07/07 06:00:56;;;;;;;10.77;2.20;;;15.80;99.90;;;;;;5004983;28;20057;-71
2022/07/07 06:03:23;;;;;;;14.40;2.47;;;15.90;99.90;;;;;;4990725;28;20041;-72
2022/07/07 06:05:48;;;;;;;12.57;2.60;;;16.00;99.90;;;;;;5006044;28;20091;-71
2022/07/07 06:08:14;;;;;;;12.70;2.92;;;16.00;99.90;;;;;;5004613;28;20480;-72
2022/07/07 06:10:40;;;;;;;14.98;3.20;;;16.20;99.90;;;;;;5013278;28;20123;-72
2022/07/07 06:13:06;;;;;;;33.35;4.70;;;16.20;99.90;;;;;;4987125;28;20140;-72
2022/07/07 06:15:35;;;;;;;9.38;2.78;;;16.30;99.90;;;;;;5021176;28;20084;-72
2022/07/07 06:18:04;;;;;;;8.23;2.00;;;16.30;99.90;;;;;;5023294;28;20107;-71
2022/07/07 06:20:30;;;;;;;12.13;2.63;;;16.30;99.90;;;;;;5017617;28;20037;-72
2022/07/07 06:22:56;;;;;;;11.85;2.85;;;16.30;99.90;;;;;;4997221;28;20044;-72
2022/07/07 06:25:28;;;;;;;8.55;2.05;;;16.30;99.90;;;;;;5002647;28;20099;-71
2022/07/07 06:27:54;;;;;;;18.48;3.10;;;16.30;99.90;;;;;;4987987;28;20068;-72
2022/07/07 06:30:20;;;;;;;20.38;4.55;;;16.30;99.90;;;;;;5004143;28;20050;-72
2022/07/07 06:32:46;;;;;;;20.75;3.85;;;16.40;99.90;;;;;;5017082;28;20038;-72
2022/07/07 06:35:12;;;;;;;21.65;3.80;;;16.50;99.90;;;;;;5004567;28;20053;-72
2022/07/07 06:37:39;;;;;;;9.95;2.00;;;16.60;99.90;;;;;;5002288;28;20072;-72
2022/07/07 06:40:05;;;;;;;7.85;2.35;;;16.60;99.90;;;;;;5008851;28;20131;-73
2022/07/07 06:42:31;;;;;;;6.85;1.63;;;16.60;99.90;;;;;;5010023;28;20120;-73
2022/07/07 06:44:57;;;;;;;10.15;1.98;;;16.60;99.90;;;;;;5021167;28;20132;-72
2022/07/07 06:47:23;;;;;;;6.10;2.03;;;16.60;99.90;;;;;;5021899;28;20057;-72
2022/07/07 06:49:48;;;;;;;6.10;1.63;;;16.60;99.90;;;;;;5017565;28;20310;-73
2022/07/07 06:52:14;;;;;;;7.35;1.77;;;16.50;99.90;;;;;;5002491;28;20037;-74
2022/07/07 06:54:40;;;;;;;8.52;2.00;;;16.40;99.90;;;;;;5022858;28;20046;-73
2022/07/07 06:57:06;;;;;;;8.43;1.30;;;16.30;99.90;;;;;;5020718;28;20489;-74
2022/07/07 06:59:33;;;;;;;4.65;1.30;;;16.20;99.90;;;;;;5004956;28;20045;-74
2022/07/07 07:02:00;;;;;;;5.45;1.30;;;16.00;99.90;;;;;;5022238;28;20468;-74
2022/07/07 07:04:26;;;;;;;4.03;1.15;;;16.00;99.90;;;;;;5002895;28;20041;-74
2022/07/07 07:06:52;;;;;;;5.03;1.00;;;16.00;99.90;;;;;;5017048;28;20586;-74
2022/07/07 07:09:18;;;;;;;8.98;1.65;;;16.10;99.90;;;;;;5004089;28;20531;-73
2022/07/07 07:11:45;;;;;;;4.80;0.98;;;16.10;99.90;;;;;;5002884;28;20081;-74
2022/07/07 07:14:13;;;;;;;6.72;1.10;;;16.20;99.90;;;;;;5008421;28;20075;-74
2022/07/07 07:16:39;;;;;;;5.85;1.05;;;16.20;99.90;;;;;;5001562;28;20034;-74
2022/07/07 07:19:05;;;;;;;6.47;1.33;;;16.20;99.90;;;;;;4986593;28;20450;-74
2022/07/07 07:21:35;;;;;;;5.40;1.02;;;16.30;99.90;;;;;;4987501;28;20034;-75
2022/07/07 07:24:00;;;;;;;6.22;1.30;;;16.40;99.90;;;;;;5005564;28;20045;-74
2022/07/07 07:26:26;;;;;;;5.10;1.42;;;16.50;99.90;;;;;;4986414;28;20079;-74
2022/07/07 07:28:55;;;;;;;6.78;1.10;;;16.70;99.90;;;;;;5012123;28;20103;-74
2022/07/07 07:31:21;;;;;;;7.10;1.25;;;16.80;99.90;;;;;;5000811;28;20057;-73
2022/07/07 07:33:47;;;;;;;4.20;0.80;;;16.80;99.90;;;;;;4999255;28;20060;-74
2022/07/07 07:36:13;;;;;;;5.00;1.10;;;16.90;99.90;;;;;;5009827;28;20076;-75
2022/07/07 07:38:40;;;;;;;5.57;1.15;;;17.00;99.90;;;;;;5019935;28;20076;-74
2022/07/07 07:41:07;;;;;;;10.23;1.27;;;17.20;99.90;;;;;;5028217;28;20484;-74
2022/07/07 07:43:35;;;;;;;6.38;1.02;;;17.40;99.90;;;;;;4989490;28;20041;-74
2022/07/07 07:46:00;;;;;;;8.00;1.35;;;17.50;99.90;;;;;;5007980;28;20073;-75
2022/07/07 07:48:26;;;;;;;4.43;1.08;;;17.60;99.90;;;;;;5025041;28;20069;-75
2022/07/07 07:50:55;;;;;;;5.75;1.00;;;17.70;99.90;;;;;;5009693;28;20385;-74
2022/07/07 07:53:21;;;;;;;5.68;1.10;;;17.80;99.90;;;;;;5022784;28;20042;-75
2022/07/07 07:55:47;;;;;;;5.35;0.90;;;17.80;99.90;;;;;;4989194;28;20139;-75
2022/07/07 07:58:13;;;;;;;4.82;0.70;;;17.80;99.90;;;;;;5010630;28;20436;-75
2022/07/07 08:00:38;;;;;;;5.72;0.77;;;17.80;99.90;;;;;;4995734;28;20412;-74
2022/07/07 08:03:04;;;;;;;5.15;0.57;;;17.60;99.90;;;;;;4992733;28;20056;-74
2022/07/07 08:05:31;;;;;;;2.95;0.70;;;17.40;99.90;;;;;;5013384;28;20454;-75
2022/07/07 08:08:00;;;;;;;2.38;0.77;;;17.30;99.90;;;;;;5004849;28;20476;-75
2022/07/07 08:10:25;;;;;;;4.25;0.82;;;17.30;99.90;;;;;;5022748;28;20112;-72
2022/07/07 08:12:51;;;;;;;6.85;0.95;;;17.30;99.90;;;;;;5019928;28;20515;-74
2022/07/07 08:15:18;;;;;;;4.15;0.88;;;17.50;99.90;;;;;;5004357;28;20428;-72
2022/07/07 08:17:49;;;;;;;3.92;0.70;;;17.70;99.90;;;;;;5012118;28;20056;-75
2022/07/07 08:20:15;;;;;;;5.30;1.15;;;17.70;99.90;;;;;;5022517;28;20833;-75
2022/07/07 08:22:40;;;;;;;4.43;0.95;;;17.60;99.90;;;;;;5023093;28;20032;-77
2022/07/07 08:25:06;;;;;;;4.68;1.05;;;17.50;99.90;;;;;;5026622;28;20053;-76
2022/07/07 08:27:32;;;;;;;3.83;0.85;;;17.50;99.90;;;;;;4989993;28;20129;-75
2022/07/07 08:30:00;;;;;;;6.38;1.10;;;17.40;99.90;;;;;;5002443;28;20412;-73
2022/07/07 08:32:26;;;;;;;4.35;0.90;;;17.30;99.90;;;;;;5020718;28;20084;-73
2022/07/07 08:34:51;;;;;;;6.13;0.82;;;17.20;99.90;;;;;;4990162;28;20491;-75
2022/07/07 08:37:17;;;;;;;3.95;0.98;;;17.10;99.90;;;;;;5024381;28;20398;-73
2022/07/07 08:39:44;;;;;;;5.97;1.10;;;17.20;99.90;;;;;;4990803;28;20053;-76
2022/07/07 08:42:11;;;;;;;6.45;1.00;;;17.30;99.90;;;;;;4990222;28;20072;-75
2022/07/07 08:44:36;;;;;;;5.20;1.05;;;17.50;99.90;;;;;;5022533;28;20050;-74
2022/07/07 08:47:03;;;;;;;5.50;1.00;;;17.70;99.90;;;;;;5006541;28;20312;-74
2022/07/07 08:49:30;;;;;;;5.20;1.17;;;18.00;99.90;;;;;;5005095;28;20042;-76
2022/07/07 08:51:57;;;;;;;4.45;0.80;;;18.10;99.90;;;;;;5007208;28;20041;-76
2022/07/07 08:54:25;;;;;;;6.88;1.23;;;18.40;99.90;;;;;;4991940;28;20046;-74
2022/07/07 08:56:51;;;;;;;4.78;1.25;;;18.50;99.90;;;;;;5006299;28;20057;-76
2022/07/07 08:59:18;;;;;;;4.95;1.20;;;18.60;99.90;;;;;;5023955;28;20038;-75
2022/07/07 09:01:58;;;;;;;6.80;1.40;;;18.50;99.90;;;;;;5004767;28;20459;-75
2022/07/07 09:04:24;;;;;;;5.70;1.10;;;18.40;99.90;;;;;;4992705;28;20041;-75
2022/07/07 09:07:01;;;;;;;6.50;1.48;;;18.30;99.90;;;;;;5006468;28;20450;-74
2022/07/07 09:09:52;;;;;;;5.90;1.48;;;18.10;99.90;;;;;;5038826;28;20524;-75
2022/07/07 09:12:19;;;;;;;6.35;1.52;;;18.10;99.90;;;;;;5007441;28;20488;-76
2022/07/07 09:14:47;;;;;;;8.05;1.55;;;17.90;99.90;;;;;;5026309;28;20054;-74
2022/07/07 09:17:32;;;;;;;6.70;1.70;;;17.70;99.90;;;;;;5021159;28;20057;-75
2022/07/07 09:20:12;;;;;;;6.28;1.95;;;17.60;99.90;;;;;;5009348;28;20049;-74
2022/07/07 09:23:04;;;;;;;7.18;1.90;;;17.50;99.90;;;;;;5031858;28;20052;-75
2022/07/07 09:25:30;;;;;;;8.02;2.13;;;17.50;99.90;;;;;;5000356;28;20115;-73
2022/07/07 09:28:06;;;;;;;7.00;2.05;;;17.70;99.90;;;;;;5003749;28;20056;-74
2022/07/07 09:30:34;;;;;;;7.22;2.00;;;17.80;99.90;;;;;;5009370;28;20512;-75
2022/07/07 09:33:07;;;;;;;6.32;1.92;;;17.90;99.90;;;;;;5022311;28;20058;-75
2022/07/07 09:38:27;;;;;;;9.85;2.10;;;17.70;99.90;;;;;;5025217;28;20527;-76
2022/07/07 09:41:10;;;;;;;5.28;1.67;;;17.60;99.90;;;;;;5020559;28;20057;-76
2022/07/07 09:43:51;;;;;;;5.63;1.85;;;17.50;99.90;;;;;;5011275;28;20056;-76
2022/07/07 09:46:25;;;;;;;5.55;1.48;;;17.30;99.90;;;;;;5006155;28;20041;-76
2022/07/07 09:48:55;;;;;;;5.80;1.65;;;17.20;99.90;;;;;;5017859;28;20056;-77
2022/07/07 09:51:30;;;;;;;5.57;1.67;;;17.30;99.90;;;;;;5007802;28;20079;-76
2022/07/07 09:53:57;;;;;;;4.97;1.60;;;17.50;99.90;;;;;;5022171;28;20503;-76
2022/07/07 09:56:27;;;;;;;5.43;1.50;;;17.70;99.90;;;;;;5018080;28;20099;-75
2022/07/07 09:58:58;;;;;;;7.07;1.90;;;18.00;99.90;;;;;;5004605;28;20050;-73
2022/07/07 10:01:28;;;;;;;;;;;18.00;99.90;;;;;;5007506;28;20104;-75
2022/07/07 10:03:59;;;;;;;7.07;1.85;;;18.00;99.90;;;;;;5003309;28;19925;-78
2022/07/07 10:06:27;;;;;;;7.18;2.00;;;18.00;99.90;;;;;;5009941;28;20585;-79
2022/07/07 10:09:16;;;;;;;6.35;1.90;;;17.90;99.90;;;;;;5005191;28;20053;-76
2022/07/07 10:11:52;;;;;;;5.82;1.80;;;17.90;99.90;;;;;;5005210;28;20501;-75
2022/07/07 10:14:27;;;;;;;7.38;1.77;;;17.80;99.90;;;;;;5021328;28;20400;-76
2022/07/07 10:16:54;;;;;;;5.18;1.67;;;17.60;99.90;;;;;;5017265;28;20053;-76
2022/07/07 10:19:22;;;;;;;6.25;1.90;;;17.50;99.90;;;;;;5011888;28;20467;-76
2022/07/07 10:21:50;;;;;;;5.95;1.38;;;17.50;99.90;;;;;;5027998;28;20051;-76
2022/07/07 10:24:19;;;;;;;5.35;1.50;;;17.50;99.90;;;;;;5012347;28;20080;-82
2022/07/07 10:26:48;;;;;;;5.90;1.38;;;17.60;99.90;;;;;;5002207;28;20465;-83
2022/07/07 10:29:14;;;;;;;7.97;1.70;;;17.90;99.90;;;;;;5020600;28;20464;-79
2022/07/07 10:31:40;;;;;;;7.05;1.63;;;18.00;99.90;;;;;;4979946;28;20041;-78
2022/07/07 10:34:09;;;;;;;6.50;1.50;;;18.00;99.90;;;;;;5037861;28;20045;-79
2022/07/07 10:36:49;;;;;;;7.75;1.63;;;17.90;99.90;;;;;;5020971;28;20048;-78
2022/07/07 10:39:17;;;;;;;7.40;1.95;;;17.70;99.90;;;;;;5026564;28;20087;-76
2022/07/07 10:42:04;;;;;;;5.95;1.80;;;17.40;99.90;;;;;;5005923;28;20548;-75
2022/07/07 10:44:32;;;;;;;5.55;1.75;;;17.10;99.90;;;;;;5021829;28;20455;-75
2022/07/07 10:47:01;;;;;;;6.38;1.83;;;16.90;99.90;;;;;;5004738;28;20427;-76
2022/07/07 10:49:39;;;;;;;6.95;2.08;;;16.80;99.90;;;;;;5015204;28;20203;-76
2022/07/07 10:52:09;;;;;;;6.75;2.10;;;16.70;99.90;;;;;;5022817;28;20043;-76
2022/07/07 10:54:47;;;;;;;10.73;1.95;;;16.60;99.90;;;;;;5008699;28;20056;-75
2022/07/07 10:57:21;;;;;;;12.75;3.30;;;16.60;99.90;;;;;;5012334;28;20303;-75
2022/07/07 11:00:08;;;;;;;7.15;2.00;;;16.60;99.90;;;;;;5015336;28;20052;-78
2022/07/07 11:02:50;;;;;;;9.13;2.47;;;16.50;99.90;;;;;;5018817;28;20037;-76
2022/07/07 11:05:16;;;;;;;13.23;2.42;;;16.50;99.90;;;;;;5026210;28;20063;-75
2022/07/07 11:08:08;;;;;;;9.20;2.22;;;16.40;99.90;;;;;;5023087;28;20044;-76
2022/07/07 11:10:37;;;;;;;13.63;2.92;;;16.30;99.90;;;;;;5010880;28;20112;-76
2022/07/07 11:13:29;;;;;;;7.80;2.45;;;16.30;99.90;;;;;;5018320;28;20060;-77
2022/07/07 11:16:16;;;;;;;9.73;2.22;;;16.50;99.90;;;;;;5007531;28;20056;-78
2022/07/07 11:18:46;;;;;;;9.02;2.22;;;16.60;99.90;;;;;;4998179;28;20041;-78
2022/07/07 11:21:12;;;;;;;9.95;2.25;;;16.70;99.90;;;;;;5028298;28;20690;-78
2022/07/07 11:23:52;;;;;;;9.02;1.90;;;16.80;99.90;;;;;;5000532;28;20050;-77
2022/07/07 11:26:26;;;;;;;10.20;2.33;;;16.80;99.90;;;;;;5012034;28;20136;-76
2022/07/07 11:28:57;;;;;;;9.27;2.38;;;16.80;99.90;;;;;;5008394;28;20053;-77
2022/07/07 11:31:30;;;;;;;9.73;2.33;;;16.70;99.90;;;;;;5010895;28;20076;-76
2022/07/07 11:33:56;;;;;;;10.68;2.45;;;16.70;99.90;;;;;;4996785;28;20516;-76
2022/07/07 11:36:25;;;;;;;12.52;2.97;;;16.60;99.90;;;;;;5012027;28;20055;-76
2022/07/07 11:38:57;;;;;;;11.00;2.33;;;16.50;99.90;;;;;;5007047;28;20049;-77
2022/07/07 11:41:43;;;;;;;16.67;3.70;;;16.40;99.90;;;;;;5019869;28;20049;-78
2022/07/07 11:44:22;;;;;;;12.02;3.53;;;16.40;99.90;;;;;;5023623;28;20034;-78
2022/07/07 11:46:50;;;;;;;12.10;3.17;;;16.50;99.90;;;;;;5021463;28;20083;-78
2022/07/07 11:49:17;;;;;;;14.93;3.33;;;16.60;99.90;;;;;;5029142;28;20349;-77
2022/07/07 11:51:44;;;;;;;15.23;3.10;;;16.60;99.90;;;;;;5006061;28;20174;-78
2022/07/07 11:54:10;;;;;;;16.55;3.88;;;16.50;99.90;;;;;;5025912;28;20116;-79
2022/07/07 11:56:37;;;;;;;12.38;2.97;;;16.40;99.90;;;;;;5019601;28;20084;-78
2022/07/07 11:59:04;;;;;;;12.73;2.90;;;16.40;99.90;;;;;;5020656;28;20340;-77
2022/07/07 12:01:37;;;;;;;17.75;3.15;;;16.50;99.90;;;;;;5011525;28;20041;-77
2022/07/07 12:04:13;;;;;;;15.15;3.85;;;16.60;99.90;;;;;;5008004;28;20046;-78
2022/07/07 12:06:39;;;;;;;15.35;2.70;;;16.70;99.90;;;;;;4991439;28;20072;-78
2022/07/07 12:09:05;;;;;;;10.63;2.95;;;16.90;99.90;;;;;;5021024;28;20057;-77
2022/07/07 12:11:31;;;;;;;12.32;2.67;;;17.10;99.90;;;;;;5009382;28;20247;-76
2022/07/07 12:13:57;;;;;;;15.75;3.38;;;17.20;99.90;;;;;;5024204;28;20146;-78
2022/07/07 12:16:23;;;;;;;15.05;3.13;;;17.20;99.90;;;;;;5006673;28;20107;-86
2022/07/07 12:18:49;;;;;;;13.88;2.58;;;17.40;99.90;;;;;;5002531;28;20034;-80
2022/07/07 12:21:22;;;;;;;12.05;2.50;;;17.40;99.90;;;;;;5008092;28;20036;-81
2022/07/07 12:23:52;;;;;;;13.93;2.97;;;17.30;99.90;;;;;;5001919;28;20065;-77
2022/07/07 12:26:26;;;;;;;11.63;2.80;;;17.20;99.90;;;;;;5004179;28;20107;-79
2022/07/07 12:28:59;;;;;;;12.40;2.97;;;17.20;99.90;;;;;;5010433;28;20543;-79
2022/07/07 12:31:25;;;;;;;14.65;2.88;;;17.20;99.90;;;;;;5014352;28;20536;-76
2022/07/07 12:33:50;;;;;;;11.32;2.33;;;17.10;99.90;;;;;;5020999;28;20187;-79
2022/07/07 12:36:21;;;;;;;12.07;3.25;;;17.10;99.90;;;;;;4994933;28;20149;-81
2022/07/07 12:38:53;;;;;;;12.68;3.17;;;17.10;99.90;;;;;;4999661;28;20050;-80
2022/07/07 12:41:32;;;;;;;13.75;3.20;;;17.10;99.90;;;;;;5014100;28;20042;-78
2022/07/07 12:44:16;;;;;;;14.80;2.97;;;17.30;99.90;;;;;;5022051;28;20053;-80
2022/07/07 12:46:43;;;;;;;14.95;3.42;;;17.40;99.90;;;;;;5004611;28;20045;-77
2022/07/07 12:49:10;;;;;;;12.93;2.88;;;17.50;99.90;;;;;;5022315;28;20528;-73